Time;durP1;ratioP1;P1;durP2;ratioP2;P2;SDS_P1;SDS_P2;PMS_P1;PMS_P2;Temp;Humidity;BMP_temperature;BMP_pressure;BME280_temperature;BME280_humidity;BME280_pressure;Samples;Min_cycle;Max_cycle;Signal;HPM_P1;HPM_P2
2022/05/10 00:01:54;;;;;;;14.35;10.73;;;14.50;99.90;;;;;;4986113;28;20030;-86
2022/05/10 00:04:19;;;;;;;15.60;10.63;;;14.40;99.90;;;;;;4984358;28;20029;-87
2022/05/10 00:06:48;;;;;;;17.92;11.27;;;14.50;99.90;;;;;;4970927;28;20026;-86
2022/05/10 00:09:16;;;;;;;19.15;10.55;;;14.40;99.90;;;;;;4977865;28;20023;-86
2022/05/10 00:11:42;;;;;;;16.75;10.82;;;14.30;99.90;;;;;;4973982;28;20082;-86
2022/05/10 00:14:08;;;;;;;15.90;10.20;;;14.20;99.90;;;;;;4962019;28;20034;-86
2022/05/10 00:16:38;;;;;;;13.13;10.80;;;14.10;99.90;;;;;;4995393;28;20030;-86
2022/05/10 00:19:03;;;;;;;16.73;11.95;;;14.10;99.90;;;;;;4977725;28;20076;-86
2022/05/10 00:21:29;;;;;;;16.75;10.88;;;14.00;99.90;;;;;;4993041;28;20034;-86
2022/05/10 00:23:54;;;;;;;15.98;11.00;;;14.00;99.90;;;;;;4992486;28;20058;-87
2022/05/10 00:26:20;;;;;;;17.55;11.05;;;13.90;99.90;;;;;;4975763;28;20037;-86
2022/05/10 00:28:46;;;;;;;22.42;11.48;;;13.90;99.90;;;;;;4971039;28;20027;-86
2022/05/10 00:31:12;;;;;;;19.60;12.05;;;13.80;99.90;;;;;;4964534;28;20824;-86
2022/05/10 00:33:38;;;;;;;19.05;12.13;;;13.70;99.90;;;;;;4969449;28;20109;-86
2022/05/10 00:36:06;;;;;;;16.52;11.88;;;13.70;99.90;;;;;;4976718;28;20084;-86
2022/05/10 00:38:34;;;;;;;16.50;12.23;;;13.60;99.90;;;;;;4975791;28;20092;-86
2022/05/10 00:41:18;;;;;;;16.45;12.90;;;13.60;99.90;;;;;;4976246;28;20058;-86
2022/05/10 00:43:48;;;;;;;18.40;12.25;;;13.60;99.90;;;;;;4975295;28;20049;-86
2022/05/10 00:46:18;;;;;;;18.73;13.40;;;13.50;99.90;;;;;;4967201;28;20130;-87
2022/05/10 00:48:56;;;;;;;19.73;14.10;;;13.50;99.90;;;;;;4964002;28;20029;-86
2022/05/10 00:51:42;;;;;;;18.60;13.38;;;13.40;99.90;;;;;;4972568;28;20041;-86
2022/05/10 00:54:33;;;;;;;17.33;13.88;;;13.40;99.90;;;;;;4967886;28;20066;-85
2022/05/10 00:57:33;;;;;;;18.38;14.27;;;13.40;99.90;;;;;;4976374;28;20026;-86
2022/05/10 01:00:10;;;;;;;23.35;14.10;;;13.30;99.90;;;;;;4973272;28;20030;-86
2022/05/10 01:03:01;;;;;;;22.95;14.52;;;13.30;99.90;;;;;;4970956;28;20030;-86
2022/05/10 01:06:05;;;;;;;18.23;14.65;;;13.20;99.90;;;;;;4973536;28;20029;-87
2022/05/10 01:08:55;;;;;;;17.67;14.02;;;13.20;99.90;;;;;;4978126;28;20033;-84
2022/05/10 01:12:07;;;;;;;18.77;14.52;;;13.20;99.90;;;;;;4975022;28;20045;-86
2022/05/10 01:14:52;;;;;;;17.30;13.93;;;13.10;99.90;;;;;;4953997;28;20518;-86
2022/05/10 01:17:18;;;;;;;19.65;14.48;;;13.10;99.90;;;;;;4961537;28;20095;-86
2022/05/10 01:19:45;;;;;;;22.33;15.18;;;13.00;99.90;;;;;;4993717;28;20113;-86
2022/05/10 01:22:44;;;;;;;25.25;15.02;;;13.00;99.90;;;;;;4975972;28;20026;-86
2022/05/10 01:25:20;;;;;;;20.77;14.18;;;13.00;99.90;;;;;;4981016;28;20026;-86
2022/05/10 01:28:11;;;;;;;18.67;14.85;;;13.00;99.90;;;;;;4972204;28;20027;-86
2022/05/10 01:30:37;;;;;;;18.48;13.77;;;13.00;99.90;;;;;;4971755;28;20025;-86
2022/05/10 01:36:17;;;;;;;21.65;16.02;;;12.90;99.90;;;;;;4994384;28;20085;-86
2022/05/10 01:39:06;;;;;;;26.80;17.17;;;12.90;99.90;;;;;;4994396;28;20475;-86
2022/05/10 01:41:49;;;;;;;22.65;16.63;;;12.90;99.90;;;;;;4969466;28;20121;-86
2022/05/10 01:44:33;;;;;;;22.10;14.88;;;12.90;99.90;;;;;;4974311;28;20168;-86
2022/05/10 01:47:32;;;;;;;22.52;16.65;;;12.80;99.90;;;;;;4994196;28;20022;-87
2022/05/10 01:50:08;;;;;;;24.77;17.05;;;12.80;99.90;;;;;;4992453;28;20480;-87
2022/05/10 01:53:01;;;;;;;22.30;17.08;;;12.80;99.90;;;;;;4966370;28;20062;-87
2022/05/10 01:55:31;;;;;;;;;;;12.70;99.90;;;;;;4958868;28;20037;-86
2022/05/10 01:58:12;;;;;;;21.52;14.57;;;12.60;99.90;;;;;;4991102;28;19917;-87
2022/05/10 02:00:40;;;;;;;21.85;16.05;;;12.70;99.90;;;;;;4960407;28;20033;-86
2022/05/10 02:03:18;;;;;;;23.40;16.75;;;12.60;99.90;;;;;;4961994;28;20027;-86
2022/05/10 02:06:17;;;;;;;20.83;15.45;;;12.60;99.90;;;;;;4974740;28;20039;-86
2022/05/10 02:09:07;;;;;;;20.17;15.40;;;12.60;99.90;;;;;;4958644;28;20039;-86
2022/05/10 02:11:44;;;;;;;21.17;15.20;;;12.60;99.90;;;;;;4970613;28;20030;-86
2022/05/10 02:14:14;;;;;;;25.90;16.35;;;12.60;99.90;;;;;;4971155;28;20517;-86
2022/05/10 02:16:54;;;;;;;19.75;15.00;;;12.60;99.90;;;;;;4972417;28;20037;-85
2022/05/10 02:19:33;;;;;;;23.02;16.60;;;12.60;99.90;;;;;;4975491;28;20034;-86
2022/05/10 02:22:10;;;;;;;21.02;15.57;;;12.60;99.90;;;;;;4975486;28;20493;-85
2022/05/10 02:24:38;;;;;;;22.42;15.93;;;12.70;99.90;;;;;;4964286;28;20038;-85
2022/05/10 02:27:09;;;;;;;22.23;16.52;;;12.70;99.90;;;;;;4983715;28;20038;-85
2022/05/10 02:29:46;;;;;;;23.40;16.80;;;12.80;99.90;;;;;;4965324;28;20043;-86
2022/05/10 02:35:04;;;;;;;22.45;17.83;;;12.80;99.90;;;;;;4986927;28;20137;-85
2022/05/10 02:37:31;;;;;;;25.13;17.17;;;12.80;99.90;;;;;;4975126;28;20041;-85
2022/05/10 02:39:58;;;;;;;21.52;15.90;;;12.90;99.90;;;;;;4964071;28;20022;-85
2022/05/10 02:42:26;;;;;;;25.23;17.95;;;12.90;99.90;;;;;;4968456;28;20124;-85
2022/05/10 02:44:54;;;;;;;28.45;18.33;;;12.90;99.90;;;;;;4974821;28;20022;-85
2022/05/10 02:47:31;;;;;;;24.42;17.80;;;12.90;99.90;;;;;;4974310;28;20121;-86
2022/05/10 02:49:58;;;;;;;30.45;18.05;;;13.00;99.90;;;;;;4976374;28;20018;-86
2022/05/10 02:52:23;;;;;;;24.02;17.55;;;12.90;99.90;;;;;;4987300;28;20443;-85
2022/05/10 02:55:04;;;;;;;27.05;18.02;;;13.00;99.90;;;;;;4983015;28;20038;-85
2022/05/10 02:57:30;;;;;;;33.53;18.90;;;13.00;99.90;;;;;;4989632;28;20034;-85
2022/05/10 03:00:00;;;;;;;26.10;19.17;;;13.00;99.90;;;;;;4973077;28;20494;-85
2022/05/10 03:02:31;;;;;;;25.35;18.80;;;13.00;99.90;;;;;;4975348;28;20026;-86
2022/05/10 03:04:58;;;;;;;26.00;18.88;;;13.10;99.90;;;;;;4992977;28;20039;-85
2022/05/10 03:07:26;;;;;;;26.45;18.15;;;13.10;99.90;;;;;;4989515;28;20038;-86
2022/05/10 03:09:52;;;;;;;29.05;18.92;;;13.10;99.90;;;;;;4959608;28;20033;-85
2022/05/10 03:12:18;;;;;;;28.67;17.77;;;13.10;99.90;;;;;;4992582;28;20035;-85
2022/05/10 03:14:44;;;;;;;26.65;19.25;;;13.10;99.90;;;;;;4975254;28;20116;-85
2022/05/10 03:17:10;;;;;;;26.30;18.55;;;13.20;99.90;;;;;;4973200;28;20126;-86
2022/05/10 03:19:38;;;;;;;26.08;20.00;;;13.20;99.90;;;;;;4959484;28;20030;-85
2022/05/10 03:22:04;;;;;;;28.08;20.10;;;13.20;99.90;;;;;;4969579;28;20033;-85
2022/05/10 03:24:30;;;;;;;30.10;20.58;;;13.20;99.90;;;;;;4974157;28;20038;-86
2022/05/10 03:26:58;;;;;;;27.73;20.35;;;13.20;99.90;;;;;;4991740;28;20041;-87
2022/05/10 03:29:25;;;;;;;28.85;20.90;;;13.20;99.90;;;;;;4960598;28;20034;-85
2022/05/10 03:31:51;;;;;;;30.15;21.25;;;13.20;99.90;;;;;;4971841;28;20022;-85
2022/05/10 03:37:02;;;;;;;28.55;20.17;;;13.20;99.90;;;;;;4986946;28;20417;-85
2022/05/10 03:39:27;;;;;;;34.42;21.30;;;13.20;99.90;;;;;;4971206;28;20027;-85
2022/05/10 03:41:53;;;;;;;33.53;21.70;;;13.30;99.90;;;;;;4975429;28;20190;-86
2022/05/10 03:44:18;;;;;;;31.17;21.05;;;13.20;99.90;;;;;;4972835;28;20027;-85
2022/05/10 03:46:45;;;;;;;29.75;19.70;;;13.20;99.90;;;;;;4971093;28;20038;-85
2022/05/10 03:49:11;;;;;;;33.47;21.33;;;13.20;99.90;;;;;;4979118;28;20037;-85
2022/05/10 03:51:36;;;;;;;28.75;21.40;;;13.30;99.90;;;;;;4972950;28;20394;-85
2022/05/10 03:54:02;;;;;;;29.40;20.65;;;13.30;99.90;;;;;;4965171;28;20030;-85
2022/05/10 03:56:28;;;;;;;31.58;21.60;;;13.30;99.90;;;;;;4975878;28;20044;-85
2022/05/10 03:58:53;;;;;;;32.08;20.48;;;13.30;99.90;;;;;;4978870;28;20026;-84
2022/05/10 04:01:20;;;;;;;30.33;21.05;;;13.30;99.90;;;;;;4974059;28;20026;-85
2022/05/10 04:03:45;;;;;;;31.50;22.50;;;13.30;99.90;;;;;;4960488;28;20026;-85
2022/05/10 04:06:11;;;;;;;34.70;21.13;;;13.30;99.90;;;;;;4978053;28;20081;-86
2022/05/10 04:08:37;;;;;;;33.40;22.42;;;13.30;99.90;;;;;;4978203;28;20100;-85
2022/05/10 04:11:09;;;;;;;33.67;22.13;;;13.30;99.90;;;;;;4977415;28;20471;-86
2022/05/10 04:13:34;;;;;;;30.75;20.13;;;13.30;99.90;;;;;;4978433;28;20030;-85
2022/05/10 04:16:00;;;;;;;32.45;21.52;;;13.30;99.90;;;;;;4977799;28;20050;-85
2022/05/10 04:18:27;;;;;;;35.85;22.20;;;13.40;99.90;;;;;;4979062;28;20069;-85
2022/05/10 04:20:53;;;;;;;39.08;22.65;;;13.40;99.90;;;;;;4974773;28;20027;-86
2022/05/10 04:23:18;;;;;;;34.88;22.00;;;13.40;99.90;;;;;;4976002;28;20518;-88
2022/05/10 04:25:44;;;;;;;33.30;21.98;;;13.50;99.90;;;;;;4975703;28;20034;-86
2022/05/10 04:28:10;;;;;;;34.60;22.95;;;13.50;99.90;;;;;;4974977;28;20038;-86
2022/05/10 04:30:35;;;;;;;31.02;21.73;;;13.60;99.90;;;;;;4976004;28;20031;-85
2022/05/10 04:33:01;;;;;;;32.72;21.60;;;13.60;99.90;;;;;;4977551;28;20034;-85
2022/05/10 04:35:27;;;;;;;32.20;23.20;;;13.70;99.90;;;;;;4978211;28;20041;-85
2022/05/10 04:37:52;;;;;;;34.03;23.05;;;13.80;99.90;;;;;;4972181;28;20078;-85
2022/05/10 04:43:05;;;;;;;30.27;22.35;;;13.90;99.90;;;;;;4986799;28;20125;-85
2022/05/10 04:45:33;;;;;;;31.20;22.23;;;13.90;99.90;;;;;;4977929;28;20094;-85
2022/05/10 04:47:59;;;;;;;33.53;22.88;;;14.00;99.90;;;;;;4974424;28;20432;-85
2022/05/10 04:50:24;;;;;;;31.88;22.65;;;14.00;99.90;;;;;;4971810;28;20112;-85
2022/05/10 04:52:50;;;;;;;35.03;23.05;;;14.10;99.90;;;;;;4964951;28;20122;-85
2022/05/10 04:55:16;;;;;;;29.33;22.80;;;14.10;99.90;;;;;;4977153;28;20156;-84
2022/05/10 04:57:42;;;;;;;32.83;21.88;;;14.20;99.90;;;;;;4972064;28;20038;-86
2022/05/10 05:00:10;;;;;;;28.02;21.88;;;14.20;99.90;;;;;;4973926;28;20023;-87
2022/05/10 05:02:36;;;;;;;29.77;22.38;;;14.30;99.90;;;;;;4975364;28;20128;-87
2022/05/10 05:05:03;;;;;;;28.25;22.00;;;14.40;99.90;;;;;;4983229;28;20022;-87
2022/05/10 05:07:28;;;;;;;34.35;21.15;;;14.40;99.90;;;;;;4966012;28;20098;-87
2022/05/10 05:09:54;;;;;;;34.30;22.95;;;14.50;99.90;;;;;;4974831;28;20022;-86
2022/05/10 05:12:19;;;;;;;31.02;22.30;;;14.60;99.90;;;;;;4974994;28;20077;-86
2022/05/10 05:14:45;;;;;;;31.67;21.67;;;14.60;99.90;;;;;;4970081;28;20019;-86
2022/05/10 05:17:11;;;;;;;34.85;21.42;;;14.70;99.90;;;;;;4974449;28;20133;-86
2022/05/10 05:19:36;;;;;;;31.83;22.38;;;14.80;99.90;;;;;;4975550;28;20022;-86
2022/05/10 05:22:02;;;;;;;25.58;19.85;;;14.80;99.90;;;;;;4974453;28;20030;-85
2022/05/10 05:24:27;;;;;;;28.65;21.00;;;14.90;99.90;;;;;;4970384;28;20031;-87
2022/05/10 05:26:53;;;;;;;37.88;22.23;;;15.00;99.90;;;;;;4970620;28;20514;-87
2022/05/10 05:29:19;;;;;;;26.13;19.80;;;15.00;99.90;;;;;;4972700;28;20545;-86
2022/05/10 05:31:45;;;;;;;27.25;19.92;;;15.10;99.90;;;;;;4968949;28;20033;-86
2022/05/10 05:34:11;;;;;;;26.15;19.40;;;15.10;99.90;;;;;;4973374;28;20038;-87
2022/05/10 05:36:37;;;;;;;26.80;20.23;;;15.20;99.90;;;;;;4970484;28;20493;-85
2022/05/10 05:39:02;;;;;;;29.13;19.73;;;15.30;99.90;;;;;;4966072;28;20030;-86
2022/05/10 05:41:28;;;;;;;25.65;17.95;;;15.30;99.90;;;;;;4968355;28;20060;-86
2022/05/10 05:43:54;;;;;;;25.33;19.45;;;15.40;99.90;;;;;;4970531;28;20034;-86
2022/05/10 05:46:19;;;;;;;32.00;20.25;;;15.50;99.90;;;;;;4975349;28;20435;-86
2022/05/10 05:48:46;;;;;;;29.42;19.75;;;15.50;99.90;;;;;;4967711;28;20113;-84
2022/05/10 05:51:12;;;;;;;28.42;20.33;;;15.60;99.90;;;;;;4975730;28;20029;-86
2022/05/10 05:53:37;;;;;;;27.08;20.25;;;15.70;99.90;;;;;;4960748;28;20110;-84
2022/05/10 05:56:11;;;;;;;33.40;21.45;;;15.80;99.90;;;;;;4973705;28;20124;-87
2022/05/10 05:58:38;;;;;;;28.55;19.77;;;15.90;99.90;;;;;;4976324;28;20022;-87
2022/05/10 06:01:15;;;;;;;29.65;19.73;;;16.00;99.90;;;;;;4976275;28;20035;-86
2022/05/10 06:03:42;;;;;;;31.60;20.40;;;16.10;99.90;;;;;;4975690;28;20022;-85
2022/05/10 06:06:08;;;;;;;33.22;20.88;;;16.20;99.90;;;;;;4971532;28;20045;-86
2022/05/10 06:08:34;;;;;;;31.90;20.48;;;16.30;99.90;;;;;;4973598;28;20034;-88
2022/05/10 06:11:00;;;;;;;26.27;18.02;;;16.40;99.90;;;;;;4976128;28;20026;-85
2022/05/10 06:13:27;;;;;;;30.58;19.45;;;16.50;99.90;;;;;;4976408;28;20187;-86
2022/05/10 06:15:52;;;;;;;29.90;19.13;;;16.50;99.90;;;;;;4976290;28;20026;-85
2022/05/10 06:18:18;;;;;;;28.75;19.35;;;16.60;99.90;;;;;;4976941;28;20045;-86
2022/05/10 06:20:43;;;;;;;30.10;18.45;;;16.70;99.90;;;;;;4976101;28;20032;-86
2022/05/10 06:23:09;;;;;;;28.42;17.13;;;16.90;99.90;;;;;;4976149;28;20485;-86
2022/05/10 06:25:36;;;;;;;25.45;17.98;;;17.00;99.90;;;;;;4973241;28;20030;-86
2022/05/10 06:28:03;;;;;;;29.77;20.00;;;17.10;99.90;;;;;;4973689;28;20029;-87
2022/05/10 06:30:29;;;;;;;27.73;19.92;;;17.30;99.90;;;;;;4964456;28;20023;-87
2022/05/10 06:33:01;;;;;;;30.35;19.67;;;17.40;99.90;;;;;;4966788;28;20030;-87
2022/05/10 06:35:28;;;;;;;27.65;18.88;;;17.50;99.90;;;;;;4974355;28;20600;-87
2022/05/10 06:40:38;;;;;;;29.63;18.65;;;17.70;99.90;;;;;;4980070;28;20443;-86
2022/05/10 06:43:04;;;;;;;23.23;18.48;;;17.90;99.90;;;;;;4975994;28;20113;-87
2022/05/10 06:45:29;;;;;;;25.98;18.58;;;18.00;99.90;;;;;;4976694;28;20109;-87
2022/05/10 06:47:55;;;;;;;26.70;18.92;;;18.10;99.90;;;;;;4970599;28;20077;-87
2022/05/10 06:50:22;;;;;;;26.67;18.25;;;18.20;99.90;;;;;;4976551;28;20509;-86
2022/05/10 06:52:54;;;;;;;22.80;17.33;;;18.30;99.90;;;;;;4976027;28;20093;-86
2022/05/10 06:55:20;;;;;;;20.60;16.67;;;18.40;99.90;;;;;;4962778;28;20109;-87
2022/05/10 06:57:46;;;;;;;23.38;17.73;;;18.50;99.90;;;;;;4971242;28;20034;-86
2022/05/10 07:00:13;;;;;;;23.48;17.20;;;18.60;99.90;;;;;;4971758;28;20113;-87
2022/05/10 07:02:39;;;;;;;22.17;16.20;;;18.70;99.90;;;;;;4972998;28;20026;-87
2022/05/10 07:05:06;;;;;;;25.85;16.90;;;18.90;99.90;;;;;;4972505;28;20029;-86
2022/05/10 07:07:32;;;;;;;22.02;14.75;;;19.00;99.90;;;;;;4969422;28;20041;-86
2022/05/10 07:09:58;;;;;;;20.20;14.68;;;19.10;99.90;;;;;;4974755;28;20026;-86
2022/05/10 07:12:23;;;;;;;21.83;15.48;;;19.20;99.90;;;;;;4975517;28;20034;-86
2022/05/10 07:14:49;;;;;;;18.08;14.38;;;19.40;99.90;;;;;;4975011;28;20019;-86
2022/05/10 07:17:15;;;;;;;17.23;13.25;;;19.50;99.90;;;;;;4963866;28;20057;-86
2022/05/10 07:19:40;;;;;;;17.63;13.68;;;19.60;99.90;;;;;;4976264;28;20022;-86
2022/05/10 07:22:06;;;;;;;15.82;12.88;;;19.80;99.90;;;;;;4972590;28;20113;-86
2022/05/10 07:24:32;;;;;;;15.27;11.60;;;20.00;99.90;;;;;;4972569;28;20401;-86
2022/05/10 07:26:58;;;;;;;14.25;11.63;;;20.30;99.90;;;;;;4971565;28;20044;-86
2022/05/10 07:29:23;;;;;;;14.52;11.63;;;20.50;99.40;;;;;;4975001;28;20030;-86
2022/05/10 07:31:49;;;;;;;16.50;11.55;;;20.60;99.00;;;;;;4974140;28;20413;-88
2022/05/10 07:34:15;;;;;;;15.40;11.43;;;20.80;98.20;;;;;;4968827;28;20023;-87
2022/05/10 07:36:41;;;;;;;13.23;10.23;;;21.00;98.20;;;;;;4972224;28;20489;-86
2022/05/10 07:39:10;;;;;;;16.42;10.43;;;21.10;97.20;;;;;;4974110;28;20384;-86
2022/05/10 07:41:37;;;;;;;9.80;8.70;;;21.20;96.90;;;;;;4962859;28;20080;-86
2022/05/10 07:44:04;;;;;;;10.70;9.07;;;21.30;96.90;;;;;;4976441;28;20252;-87
2022/05/10 07:46:30;;;;;;;11.13;8.07;;;21.50;96.00;;;;;;4961195;28;20099;-87
2022/05/10 07:48:55;;;;;;;9.73;7.68;;;21.50;95.30;;;;;;4963688;28;20058;-87
2022/05/10 07:51:21;;;;;;;9.23;7.82;;;21.70;95.40;;;;;;4970792;28;20037;-86
2022/05/10 07:53:47;;;;;;;8.73;7.15;;;21.90;95.30;;;;;;4974214;28;20026;-85
2022/05/10 07:56:13;;;;;;;11.20;6.65;;;22.10;94.70;;;;;;4971270;28;20026;-86
2022/05/10 07:58:38;;;;;;;12.05;6.18;;;22.30;94.10;;;;;;4967430;28;20122;-87
2022/05/10 08:01:04;;;;;;;34.97;6.53;;;22.50;93.50;;;;;;4975737;28;20026;-87
2022/05/10 08:03:31;;;;;;;7.80;6.05;;;22.60;92.90;;;;;;4969732;28;20069;-87
2022/05/10 08:05:57;;;;;;;9.73;6.00;;;22.70;92.50;;;;;;4973383;28;20073;-86
2022/05/10 08:08:24;;;;;;;9.13;5.38;;;22.90;91.80;;;;;;4973101;28;20061;-86
2022/05/10 08:10:51;;;;;;;7.55;5.03;;;22.90;91.00;;;;;;4974879;28;20499;-87
2022/05/10 08:13:20;;;;;;;9.68;4.75;;;23.00;91.00;;;;;;4973204;28;20466;-86
2022/05/10 08:15:46;;;;;;;6.18;5.28;;;22.90;90.50;;;;;;4979102;28;20049;-87
2022/05/10 08:18:12;;;;;;;8.57;5.10;;;22.90;90.10;;;;;;4978335;28;20450;-87
2022/05/10 08:20:39;;;;;;;7.63;5.78;;;22.90;90.00;;;;;;4974203;28;20030;-87
2022/05/10 08:23:06;;;;;;;9.88;5.70;;;22.90;89.20;;;;;;4978535;28;20130;-87
2022/05/10 08:25:32;;;;;;;5.97;4.35;;;22.80;89.10;;;;;;4974815;28;20080;-85
2022/05/10 08:27:58;;;;;;;5.57;4.40;;;22.90;89.10;;;;;;4977571;28;20474;-85
2022/05/10 08:30:24;;;;;;;9.40;4.95;;;22.90;89.10;;;;;;4965524;28;20122;-86
2022/05/10 08:32:51;;;;;;;6.68;5.07;;;23.00;88.70;;;;;;4977573;28;20029;-86
2022/05/10 08:35:17;;;;;;;7.40;4.85;;;23.00;88.60;;;;;;4978519;28;20496;-86
2022/05/10 08:37:42;;;;;;;7.30;4.60;;;23.00;88.10;;;;;;4976137;28;20132;-86
2022/05/10 08:40:24;;;;;;;6.38;4.50;;;23.00;87.50;;;;;;4977845;28;20026;-86
2022/05/10 08:42:52;;;;;;;6.72;5.10;;;22.90;87.00;;;;;;4978362;28;20125;-87
2022/05/10 08:45:19;;;;;;;5.97;4.15;;;22.90;86.20;;;;;;4977824;28;20109;-86
2022/05/10 08:47:45;;;;;;;8.55;4.07;;;22.90;85.90;;;;;;4978934;28;20037;-86
2022/05/10 08:50:13;;;;;;;5.65;3.28;;;22.90;85.70;;;;;;4975392;28;20035;-86
2022/05/10 08:52:44;;;;;;;4.75;3.28;;;22.90;85.80;;;;;;4966861;28;20078;-86
2022/05/10 08:55:12;;;;;;;6.33;2.80;;;22.90;85.60;;;;;;4986413;28;20041;-86
2022/05/10 08:58:06;;;;;;;5.25;3.38;;;23.00;85.50;;;;;;4977679;28;20034;-86
2022/05/10 09:00:56;;;;;;;12.77;3.28;;;23.10;85.20;;;;;;4979093;28;20479;-86
2022/05/10 09:03:33;;;;;;;5.35;3.47;;;23.20;84.80;;;;;;4984614;28;20034;-87
2022/05/10 09:06:03;;;;;;;6.40;3.35;;;23.30;84.20;;;;;;4975235;28;20050;-86
2022/05/10 09:08:38;;;;;;;8.45;2.90;;;23.40;82.20;;;;;;4968551;28;20023;-86
2022/05/10 09:11:07;;;;;;;4.65;2.63;;;23.50;82.50;;;;;;4977278;28;20457;-87
2022/05/10 09:13:32;;;;;;;9.10;3.33;;;23.80;82.70;;;;;;4978125;28;20030;-86
2022/05/10 09:16:01;;;;;;;9.02;3.42;;;23.90;81.40;;;;;;4977018;28;20073;-86
2022/05/10 09:18:39;;;;;;;5.32;2.95;;;24.00;79.90;;;;;;4978250;28;20064;-86
2022/05/10 09:21:14;;;;;;;6.35;2.38;;;23.90;79.30;;;;;;4977059;28;20355;-84
2022/05/10 09:23:54;;;;;;;5.03;2.42;;;24.00;79.60;;;;;;4976278;28;20145;-86
2022/05/10 09:26:23;;;;;;;5.70;2.47;;;23.80;77.60;;;;;;4977745;28;20491;-86
2022/05/10 09:29:05;;;;;;;3.72;2.17;;;23.80;77.90;;;;;;4974197;28;20026;-87
2022/05/10 09:37:24;;;;;;;6.65;2.50;;;23.90;77.20;;;;;;4994483;28;20475;-86
2022/05/10 09:39:56;;;;;;;3.90;2.50;;;24.20;76.00;;;;;;4975063;28;20026;-86
2022/05/10 09:42:34;;;;;;;5.13;2.42;;;24.30;74.80;;;;;;4977110;28;20551;-86
2022/05/10 09:45:05;;;;;;;4.13;2.35;;;24.50;74.40;;;;;;4972080;28;20030;-86
2022/05/10 09:47:32;;;;;;;5.60;3.15;;;24.70;73.00;;;;;;4977272;28;20030;-86
2022/05/10 09:50:19;;;;;;;3.85;2.50;;;24.80;72.50;;;;;;4981868;28;20109;-86
2022/05/10 09:52:46;;;;;;;5.10;2.17;;;25.00;71.50;;;;;;4973677;28;20066;-83
2022/05/10 09:55:28;;;;;;;6.03;2.53;;;25.10;70.90;;;;;;4970108;28;20030;-84
2022/05/10 09:57:55;;;;;;;;;;;25.20;70.30;;;;;;4977400;28;20092;-86
2022/05/10 10:00:39;;;;;;;4.93;2.97;;;25.20;70.10;;;;;;4976565;28;20229;-86
2022/05/10 10:03:04;;;;;;;4.25;2.60;;;25.30;69.30;;;;;;4973449;28;20034;-86
2022/05/10 10:05:34;;;;;;;4.93;2.50;;;25.40;69.70;;;;;;4973676;28;20081;-85
2022/05/10 10:08:00;;;;;;;6.85;3.38;;;25.50;68.70;;;;;;4962647;28;20032;-85
2022/05/10 10:10:32;;;;;;;5.25;3.28;;;25.30;67.60;;;;;;4974387;28;20030;-85
2022/05/10 10:12:57;;;;;;;;;;;25.10;67.50;;;;;;4977201;28;20039;-85
2022/05/10 10:15:31;;;;;;;6.32;3.08;;;25.00;67.30;;;;;;4975264;28;20086;-85
2022/05/10 10:17:58;;;;;;;7.10;3.05;;;24.90;68.70;;;;;;4976980;28;20490;-85
2022/05/10 10:20:29;;;;;;;6.90;3.53;;;25.00;70.00;;;;;;4976594;28;20045;-85
2022/05/10 10:22:59;;;;;;;8.32;3.90;;;25.10;68.50;;;;;;4976223;28;20047;-84
2022/05/10 10:25:33;;;;;;;5.28;3.95;;;25.20;67.30;;;;;;4976658;28;20088;-85
2022/05/10 10:28:05;;;;;;;6.75;3.20;;;25.20;67.20;;;;;;4959173;28;20034;-85
2022/05/10 10:30:46;;;;;;;8.98;4.13;;;25.20;68.00;;;;;;4958544;28;20031;-85
2022/05/10 10:33:24;;;;;;;8.30;3.85;;;25.10;67.70;;;;;;4958180;28;20037;-86
2022/05/10 10:36:10;;;;;;;5.53;3.63;;;25.20;67.90;;;;;;4975637;28;20026;-86
2022/05/10 10:38:52;;;;;;;5.10;3.33;;;25.30;67.60;;;;;;4962736;28;20045;-86
2022/05/10 10:41:47;;;;;;;9.43;3.40;;;25.30;66.90;;;;;;4957206;28;20031;-86
2022/05/10 10:44:26;;;;;;;7.35;3.28;;;25.30;67.00;;;;;;4955994;28;20027;-86
2022/05/10 10:47:26;;;;;;;15.85;3.60;;;25.30;67.70;;;;;;4957167;28;20029;-85
2022/05/10 10:50:09;;;;;;;6.38;2.90;;;25.40;68.00;;;;;;4957237;28;20038;-86
2022/05/10 10:52:35;;;;;;;7.55;3.00;;;25.60;67.10;;;;;;4966478;28;20100;-86
2022/05/10 10:55:05;;;;;;;4.60;2.85;;;25.80;66.40;;;;;;4974722;28;20062;-86
2022/05/10 10:57:55;;;;;;;5.93;2.63;;;26.10;65.90;;;;;;4975964;28;20111;-86
2022/05/10 11:00:35;;;;;;;5.00;2.47;;;26.30;65.10;;;;;;4960939;28;20030;-86
2022/05/10 11:03:24;;;;;;;4.88;2.40;;;26.50;64.00;;;;;;4976659;28;20038;-85
2022/05/10 11:06:02;;;;;;;5.85;2.58;;;26.60;63.90;;;;;;4971595;28;20076;-86
2022/05/10 11:08:58;;;;;;;3.92;2.25;;;26.50;63.20;;;;;;4972491;28;20027;-86
2022/05/10 11:12:05;;;;;;;7.15;2.25;;;26.50;63.20;;;;;;4970719;28;20030;-86
2022/05/10 11:15:07;;;;;;;8.65;2.08;;;26.50;63.90;;;;;;4974963;28;20503;-87
2022/05/10 11:17:53;;;;;;;3.90;2.00;;;26.60;63.40;;;;;;4969719;28;20146;-85
2022/05/10 11:20:43;;;;;;;5.43;3.10;;;26.70;62.60;;;;;;4970846;28;20108;-85
2022/05/10 11:23:10;;;;;;;7.75;2.70;;;26.70;60.60;;;;;;4980020;28;20043;-87
2022/05/10 11:25:54;;;;;;;8.07;3.60;;;26.70;61.00;;;;;;4975757;28;20456;-86
2022/05/10 11:28:54;;;;;;;5.20;2.90;;;26.80;60.40;;;;;;4975531;28;20164;-85
2022/05/10 11:31:45;;;;;;;5.38;2.78;;;26.70;60.40;;;;;;4976709;28;20030;-85
2022/05/10 11:34:28;;;;;;;5.85;2.63;;;26.50;60.10;;;;;;4969530;28;20467;-85
2022/05/10 11:36:58;;;;;;;5.05;2.72;;;26.30;60.50;;;;;;4975187;28;20041;-85
2022/05/10 11:39:50;;;;;;;6.88;2.60;;;26.20;61.00;;;;;;4976219;28;20041;-86
2022/05/10 11:42:41;;;;;;;4.47;2.45;;;26.20;61.50;;;;;;4975949;28;20030;-86
2022/05/10 11:45:31;;;;;;;4.90;2.53;;;26.20;61.70;;;;;;4963190;28;20844;-86
2022/05/10 11:48:14;;;;;;;5.55;2.75;;;26.30;61.80;;;;;;4975481;28;20034;-86
2022/05/10 11:51:42;;;;;;;7.78;2.72;;;26.50;61.60;;;;;;4979105;28;20033;-86
2022/05/10 11:54:32;;;;;;;8.70;2.50;;;26.50;60.80;;;;;;4933554;28;20053;-86
2022/05/10 11:56:59;;;;;;;5.93;2.58;;;26.50;61.00;;;;;;4978885;28;20498;-86
2022/05/10 11:59:32;;;;;;;5.47;2.55;;;26.50;60.80;;;;;;4969887;28;20454;-86
2022/05/10 12:01:59;;;;;;;8.02;2.42;;;26.50;61.30;;;;;;4989825;28;20038;-86
2022/05/10 12:04:46;;;;;;;4.88;2.50;;;26.60;61.70;;;;;;4974202;28;20022;-86
2022/05/10 12:07:24;;;;;;;5.78;2.65;;;26.80;61.00;;;;;;4978505;28;20026;-85
2022/05/10 12:09:57;;;;;;;6.68;2.75;;;26.90;61.60;;;;;;4960058;28;20122;-85
2022/05/10 12:12:42;;;;;;;7.15;2.65;;;26.90;60.70;;;;;;4976490;28;20018;-85
2022/05/10 12:21:41;;;;;;;5.13;1.98;;;26.60;60.40;;;;;;4985713;28;20102;-85
2022/05/10 12:24:25;;;;;;;3.38;1.95;;;26.50;60.30;;;;;;4978675;28;20130;-86
2022/05/10 12:26:51;;;;;;;4.93;2.20;;;26.40;60.20;;;;;;4978167;28;20549;-85
2022/05/10 12:29:32;;;;;;;6.70;2.20;;;26.40;60.10;;;;;;4979035;28;20018;-86
2022/05/10 12:32:01;;;;;;;5.00;2.15;;;26.50;60.10;;;;;;4979126;28;20045;-86
2022/05/10 12:34:39;;;;;;;6.28;2.20;;;26.70;60.60;;;;;;4996101;28;20026;-86
2022/05/10 12:37:27;;;;;;;5.25;1.88;;;26.80;59.40;;;;;;4989759;28;20046;-86
2022/05/10 12:40:00;;;;;;;2.63;1.70;;;26.70;59.50;;;;;;4965378;28;20502;-86
2022/05/10 12:42:36;;;;;;;5.25;2.03;;;26.60;59.20;;;;;;4964789;28;20030;-86
2022/05/10 12:45:01;;;;;;;4.60;2.28;;;26.50;58.90;;;;;;4978579;28;20073;-86
2022/05/10 12:47:42;;;;;;;6.32;2.30;;;26.50;59.30;;;;;;4974530;28;20502;-86
2022/05/10 12:50:33;;;;;;;7.80;2.23;;;26.60;59.20;;;;;;4994489;28;20026;-86
2022/05/10 12:52:59;;;;;;;5.30;2.00;;;26.50;59.00;;;;;;4994706;28;20157;-86
2022/05/10 12:55:29;;;;;;;7.30;2.38;;;26.40;59.20;;;;;;4990232;28;20550;-84
2022/05/10 12:58:05;;;;;;;5.40;2.00;;;26.40;58.60;;;;;;4963362;28;20050;-86
2022/05/10 13:00:39;;;;;;;8.60;1.90;;;26.30;58.70;;;;;;4963388;28;20037;-87
2022/05/10 13:03:12;;;;;;;6.28;1.80;;;26.10;59.00;;;;;;4963401;28;20034;-86
2022/05/10 13:06:02;;;;;;;5.68;2.10;;;26.10;59.50;;;;;;4977825;28;20026;-85
2022/05/10 13:08:39;;;;;;;5.72;2.25;;;26.10;59.10;;;;;;4976452;28;20031;-86
2022/05/10 13:11:06;;;;;;;5.65;1.65;;;25.90;58.60;;;;;;4969734;28;20087;-86
2022/05/10 13:13:33;;;;;;;4.97;1.92;;;25.80;59.20;;;;;;4995371;28;20023;-86
2022/05/10 13:16:00;;;;;;;6.80;2.30;;;25.80;59.10;;;;;;4986112;28;20030;-86
2022/05/10 13:18:28;;;;;;;5.60;1.85;;;25.90;59.10;;;;;;4995116;28;20037;-86
2022/05/10 13:20:56;;;;;;;4.90;2.00;;;26.10;59.60;;;;;;4977815;28;20033;-86
2022/05/10 13:23:31;;;;;;;5.45;1.85;;;26.20;58.80;;;;;;4974111;28;20063;-86
2022/05/10 13:26:08;;;;;;;6.95;2.67;;;26.20;59.10;;;;;;4973788;28;20022;-87
2022/05/10 13:28:34;;;;;;;6.40;2.10;;;26.30;59.50;;;;;;4956444;28;20051;-85